sensor_id;sensor_type;location;lat;lon;timestamp;temperature;humidity
61412;DHT22;47278;49.732;7.690;2023-09-19T00:01:42;16.50;99.90
61412;DHT22;47278;49.732;7.690;2023-09-19T00:04:11;16.40;99.90
61412;DHT22;47278;49.732;7.690;2023-09-19T00:06:38;16.50;99.90
61412;DHT22;47278;49.732;7.690;2023-09-19T00:09:04;16.50;99.90
61412;DHT22;47278;49.732;7.690;2023-09-19T00:11:29;16.60;99.90
61412;DHT22;47278;49.732;7.690;2023-09-19T00:13:56;16.70;99.90
61412;DHT22;47278;49.732;7.690;2023-09-19T00:16:22;16.70;99.90
61412;DHT22;47278;49.732;7.690;2023-09-19T00:18:48;16.70;99.90
61412;DHT22;47278;49.732;7.690;2023-09-19T00:21:14;16.80;99.90
61412;DHT22;47278;49.732;7.690;2023-09-19T00:23:40;16.70;99.90
61412;DHT22;47278;49.732;7.690;2023-09-19T00:26:06;16.70;99.90
61412;DHT22;47278;49.732;7.690;2023-09-19T00:28:31;16.70;99.90
61412;DHT22;47278;49.732;7.690;2023-09-19T00:30:57;16.70;99.90
61412;DHT22;47278;49.732;7.690;2023-09-19T00:33:26;16.70;99.90
61412;DHT22;47278;49.732;7.690;2023-09-19T00:35:55;16.60;99.90
61412;DHT22;47278;49.732;7.690;2023-09-19T00:38:21;16.50;99.90
61412;DHT22;47278;49.732;7.690;2023-09-19T00:40:52;16.40;99.90
61412;DHT22;47278;49.732;7.690;2023-09-19T00:43:18;16.40;99.90
61412;DHT22;47278;49.732;7.690;2023-09-19T00:45:46;16.40;99.90
61412;DHT22;47278;49.732;7.690;2023-09-19T00:48:13;16.40;99.90
61412;DHT22;47278;49.732;7.690;2023-09-19T00:50:39;16.40;99.90
61412;DHT22;47278;49.732;7.690;2023-09-19T00:53:09;16.40;99.90
61412;DHT22;47278;49.732;7.690;2023-09-19T00:55:35;16.40;99.90
61412;DHT22;47278;49.732;7.690;2023-09-19T00:58:02;16.30;99.90
61412;DHT22;47278;49.732;7.690;2023-09-19T01:00:28;16.30;99.90
61412;DHT22;47278;49.732;7.690;2023-09-19T01:02:54;16.30;99.90
61412;DHT22;47278;49.732;7.690;2023-09-19T01:05:20;16.50;99.90
61412;DHT22;47278;49.732;7.690;2023-09-19T01:07:45;16.60;99.90
61412;DHT22;47278;49.732;7.690;2023-09-19T01:10:17;16.60;99.90
61412;DHT22;47278;49.732;7.690;2023-09-19T01:23:34;16.20;99.90
61412;DHT22;47278;49.732;7.690;2023-09-19T01:31:19;16.10;99.90
61412;DHT22;47278;49.732;7.690;2023-09-19T01:36:31;15.70;99.90
61412;DHT22;47278;49.732;7.690;2023-09-19T01:38:57;14.00;99.90
61412;DHT22;47278;49.732;7.690;2023-09-19T01:41:26;15.80;99.90
61412;DHT22;47278;49.732;7.690;2023-09-19T01:43:54;15.80;99.90
61412;DHT22;47278;49.732;7.690;2023-09-19T01:46:21;15.80;99.90
61412;DHT22;47278;49.732;7.690;2023-09-19T01:49:33;15.60;99.90
61412;DHT22;47278;49.732;7.690;2023-09-19T01:54:17;15.60;99.90
61412;DHT22;47278;49.732;7.690;2023-09-19T01:57:29;15.50;99.90
61412;DHT22;47278;49.732;7.690;2023-09-19T01:59:31;15.60;99.90
61412;DHT22;47278;49.732;7.690;2023-09-19T02:01:59;15.50;99.90
61412;DHT22;47278;49.732;7.690;2023-09-19T02:04:25;17.50;99.90
61412;DHT22;47278;49.732;7.690;2023-09-19T02:06:52;15.40;99.90
61412;DHT22;47278;49.732;7.690;2023-09-19T02:09:18;15.50;99.90
61412;DHT22;47278;49.732;7.690;2023-09-19T02:11:44;15.40;99.90
61412;DHT22;47278;49.732;7.690;2023-09-19T02:14:09;15.30;99.90
61412;DHT22;47278;49.732;7.690;2023-09-19T02:16:35;15.30;99.90
61412;DHT22;47278;49.732;7.690;2023-09-19T02:19:00;15.10;99.90
61412;DHT22;47278;49.732;7.690;2023-09-19T02:21:30;15.10;99.90
61412;DHT22;47278;49.732;7.690;2023-09-19T02:23:56;15.10;99.90
61412;DHT22;47278;49.732;7.690;2023-09-19T02:26:21;15.00;99.90
61412;DHT22;47278;49.732;7.690;2023-09-19T02:28:50;15.20;99.90
61412;DHT22;47278;49.732;7.690;2023-09-19T02:31:15;15.20;99.90
61412;DHT22;47278;49.732;7.690;2023-09-19T02:33:42;15.10;99.90
61412;DHT22;47278;49.732;7.690;2023-09-19T02:36:07;15.00;99.90
61412;DHT22;47278;49.732;7.690;2023-09-19T02:38:34;15.00;99.90
61412;DHT22;47278;49.732;7.690;2023-09-19T02:40:59;15.00;99.90
61412;DHT22;47278;49.732;7.690;2023-09-19T02:43:25;15.00;99.90
61412;DHT22;47278;49.732;7.690;2023-09-19T02:45:51;15.00;99.90
61412;DHT22;47278;49.732;7.690;2023-09-19T02:48:18;14.90;99.90
61412;DHT22;47278;49.732;7.690;2023-09-19T02:50:44;14.90;99.90
61412;DHT22;47278;49.732;7.690;2023-09-19T02:53:10;14.90;99.90
61412;DHT22;47278;49.732;7.690;2023-09-19T02:55:38;15.00;99.90
61412;DHT22;47278;49.732;7.690;2023-09-19T02:58:05;15.00;99.90
61412;DHT22;47278;49.732;7.690;2023-09-19T03:00:33;15.00;99.90
61412;DHT22;47278;49.732;7.690;2023-09-19T03:02:59;14.90;99.90
61412;DHT22;47278;49.732;7.690;2023-09-19T03:05:25;14.90;99.90
61412;DHT22;47278;49.732;7.690;2023-09-19T03:07:51;14.90;99.90
61412;DHT22;47278;49.732;7.690;2023-09-19T03:10:18;14.90;99.90
61412;DHT22;47278;49.732;7.690;2023-09-19T03:12:43;14.90;99.90
61412;DHT22;47278;49.732;7.690;2023-09-19T03:15:09;14.80;99.90
61412;DHT22;47278;49.732;7.690;2023-09-19T03:17:35;14.70;99.90
61412;DHT22;47278;49.732;7.690;2023-09-19T03:20:01;14.80;99.90
61412;DHT22;47278;49.732;7.690;2023-09-19T03:22:27;14.90;99.90
61412;DHT22;47278;49.732;7.690;2023-09-19T03:24:53;14.90;99.90
61412;DHT22;47278;49.732;7.690;2023-09-19T03:27:19;14.80;99.90
61412;DHT22;47278;49.732;7.690;2023-09-19T03:29:46;16.20;99.90
61412;DHT22;47278;49.732;7.690;2023-09-19T03:32:11;14.60;99.90
61412;DHT22;47278;49.732;7.690;2023-09-19T03:34:37;14.50;99.90
61412;DHT22;47278;49.732;7.690;2023-09-19T03:37:07;14.50;99.90
61412;DHT22;47278;49.732;7.690;2023-09-19T03:39:33;14.50;99.90
61412;DHT22;47278;49.732;7.690;2023-09-19T03:42:00;14.40;99.90
61412;DHT22;47278;49.732;7.690;2023-09-19T03:44:25;14.50;99.90
61412;DHT22;47278;49.732;7.690;2023-09-19T03:46:51;14.40;99.90
61412;DHT22;47278;49.732;7.690;2023-09-19T03:49:17;14.50;99.90
61412;DHT22;47278;49.732;7.690;2023-09-19T03:51:42;14.50;99.90
61412;DHT22;47278;49.732;7.690;2023-09-19T03:54:08;14.60;99.90
61412;DHT22;47278;49.732;7.690;2023-09-19T03:56:33;14.60;99.90
61412;DHT22;47278;49.732;7.690;2023-09-19T03:58:59;16.10;99.90
61412;DHT22;47278;49.732;7.690;2023-09-19T04:01:24;14.70;99.90
61412;DHT22;47278;49.732;7.690;2023-09-19T04:03:51;14.70;99.90
61412;DHT22;47278;49.732;7.690;2023-09-19T04:06:18;14.70;99.90
61412;DHT22;47278;49.732;7.690;2023-09-19T04:08:44;14.70;99.90
61412;DHT22;47278;49.732;7.690;2023-09-19T04:11:10;14.60;99.90
61412;DHT22;47278;49.732;7.690;2023-09-19T04:13:36;15.90;99.90
61412;DHT22;47278;49.732;7.690;2023-09-19T04:16:02;14.60;99.90
61412;DHT22;47278;49.732;7.690;2023-09-19T04:18:29;14.50;99.90
61412;DHT22;47278;49.732;7.690;2023-09-19T04:20:57;14.50;99.90
61412;DHT22;47278;49.732;7.690;2023-09-19T04:23:22;14.50;99.90
61412;DHT22;47278;49.732;7.690;2023-09-19T04:25:48;14.50;99.90
61412;DHT22;47278;49.732;7.690;2023-09-19T04:28:14;14.60;99.90
61412;DHT22;47278;49.732;7.690;2023-09-19T04:30:40;13.60;99.90
61412;DHT22;47278;49.732;7.690;2023-09-19T04:33:06;14.60;99.90
61412;DHT22;47278;49.732;7.690;2023-09-19T04:35:32;14.60;99.90
61412;DHT22;47278;49.732;7.690;2023-09-19T04:37:57;14.50;99.90
61412;DHT22;47278;49.732;7.690;2023-09-19T04:40:23;14.50;99.90
61412;DHT22;47278;49.732;7.690;2023-09-19T04:42:55;14.50;99.90
61412;DHT22;47278;49.732;7.690;2023-09-19T04:45:25;14.50;99.90
61412;DHT22;47278;49.732;7.690;2023-09-19T04:47:51;12.40;99.90
61412;DHT22;47278;49.732;7.690;2023-09-19T04:50:17;14.50;99.90
61412;DHT22;47278;49.732;7.690;2023-09-19T04:52:44;14.50;99.90
61412;DHT22;47278;49.732;7.690;2023-09-19T04:55:13;14.50;99.90
61412;DHT22;47278;49.732;7.690;2023-09-19T04:57:45;14.40;99.90
61412;DHT22;47278;49.732;7.690;2023-09-19T05:00:14;14.30;99.90
61412;DHT22;47278;49.732;7.690;2023-09-19T05:02:42;14.30;99.90
61412;DHT22;47278;49.732;7.690;2023-09-19T05:05:07;14.20;99.90
61412;DHT22;47278;49.732;7.690;2023-09-19T05:07:34;14.30;99.90
61412;DHT22;47278;49.732;7.690;2023-09-19T05:09:59;14.10;99.90
61412;DHT22;47278;49.732;7.690;2023-09-19T05:12:28;14.00;99.90
61412;DHT22;47278;49.732;7.690;2023-09-19T05:14:53;14.10;99.90
61412;DHT22;47278;49.732;7.690;2023-09-19T05:17:19;14.10;99.90
61412;DHT22;47278;49.732;7.690;2023-09-19T05:19:44;14.00;99.90
61412;DHT22;47278;49.732;7.690;2023-09-19T05:22:11;14.00;99.90
61412;DHT22;47278;49.732;7.690;2023-09-19T05:24:37;14.10;99.90
61412;DHT22;47278;49.732;7.690;2023-09-19T05:27:04;14.00;99.90
61412;DHT22;47278;49.732;7.690;2023-09-19T05:29:32;14.10;99.90
61412;DHT22;47278;49.732;7.690;2023-09-19T05:31:59;14.20;99.90
61412;DHT22;47278;49.732;7.690;2023-09-19T05:34:24;14.20;99.90
61412;DHT22;47278;49.732;7.690;2023-09-19T05:36:51;14.20;99.90
61412;DHT22;47278;49.732;7.690;2023-09-19T05:39:17;14.20;99.90
61412;DHT22;47278;49.732;7.690;2023-09-19T05:41:43;14.20;99.90
61412;DHT22;47278;49.732;7.690;2023-09-19T05:44:08;14.20;99.90
61412;DHT22;47278;49.732;7.690;2023-09-19T05:46:34;14.20;99.90
61412;DHT22;47278;49.732;7.690;2023-09-19T05:49:00;14.20;99.90
61412;DHT22;47278;49.732;7.690;2023-09-19T05:51:25;14.20;99.90
61412;DHT22;47278;49.732;7.690;2023-09-19T05:53:53;14.30;99.90
61412;DHT22;47278;49.732;7.690;2023-09-19T05:56:20;14.30;99.90
61412;DHT22;47278;49.732;7.690;2023-09-19T05:58:46;14.30;99.90
61412;DHT22;47278;49.732;7.690;2023-09-19T06:01:11;14.40;99.90
61412;DHT22;47278;49.732;7.690;2023-09-19T06:03:37;14.40;99.90
61412;DHT22;47278;49.732;7.690;2023-09-19T06:06:03;14.50;99.90
61412;DHT22;47278;49.732;7.690;2023-09-19T06:08:29;14.50;99.90
61412;DHT22;47278;49.732;7.690;2023-09-19T06:10:56;14.60;99.90
61412;DHT22;47278;49.732;7.690;2023-09-19T06:13:22;14.70;99.90
61412;DHT22;47278;49.732;7.690;2023-09-19T06:15:48;14.80;99.90
61412;DHT22;47278;49.732;7.690;2023-09-19T06:18:15;14.80;99.90
61412;DHT22;47278;49.732;7.690;2023-09-19T06:20:47;12.60;99.90
61412;DHT22;47278;49.732;7.690;2023-09-19T06:23:13;14.90;99.90
61412;DHT22;47278;49.732;7.690;2023-09-19T06:25:38;14.90;99.90
61412;DHT22;47278;49.732;7.690;2023-09-19T06:28:04;14.90;99.90
61412;DHT22;47278;49.732;7.690;2023-09-19T06:30:30;15.00;99.90
61412;DHT22;47278;49.732;7.690;2023-09-19T06:32:56;15.00;99.90
61412;DHT22;47278;49.732;7.690;2023-09-19T06:35:22;15.00;99.90
61412;DHT22;47278;49.732;7.690;2023-09-19T06:37:48;15.00;99.90
61412;DHT22;47278;49.732;7.690;2023-09-19T06:40:14;15.00;99.90
61412;DHT22;47278;49.732;7.690;2023-09-19T06:42:44;15.10;99.90
61412;DHT22;47278;49.732;7.690;2023-09-19T06:45:13;15.20;99.90
61412;DHT22;47278;49.732;7.690;2023-09-19T06:47:43;15.20;99.90
61412;DHT22;47278;49.732;7.690;2023-09-19T06:50:10;15.20;99.90
61412;DHT22;47278;49.732;7.690;2023-09-19T06:52:42;15.30;99.90
61412;DHT22;47278;49.732;7.690;2023-09-19T06:55:07;15.40;99.90
61412;DHT22;47278;49.732;7.690;2023-09-19T06:57:34;15.50;99.90
61412;DHT22;47278;49.732;7.690;2023-09-19T07:00:00;15.50;99.90
61412;DHT22;47278;49.732;7.690;2023-09-19T07:02:27;15.50;99.90
61412;DHT22;47278;49.732;7.690;2023-09-19T07:04:52;15.50;99.90
61412;DHT22;47278;49.732;7.690;2023-09-19T07:07:18;15.50;99.90
61412;DHT22;47278;49.732;7.690;2023-09-19T07:09:43;15.60;99.90
61412;DHT22;47278;49.732;7.690;2023-09-19T07:12:09;15.70;99.90
61412;DHT22;47278;49.732;7.690;2023-09-19T07:14:34;15.60;99.90
61412;DHT22;47278;49.732;7.690;2023-09-19T07:17:00;15.70;99.90
61412;DHT22;47278;49.732;7.690;2023-09-19T07:19:26;15.80;99.90
61412;DHT22;47278;49.732;7.690;2023-09-19T07:21:57;15.80;99.90
61412;DHT22;47278;49.732;7.690;2023-09-19T07:24:24;15.80;99.90
61412;DHT22;47278;49.732;7.690;2023-09-19T07:26:52;15.90;99.90
61412;DHT22;47278;49.732;7.690;2023-09-19T07:29:18;15.90;99.90
61412;DHT22;47278;49.732;7.690;2023-09-19T07:31:43;16.00;99.90
61412;DHT22;47278;49.732;7.690;2023-09-19T07:34:09;16.00;99.90
61412;DHT22;47278;49.732;7.690;2023-09-19T07:36:35;16.00;99.90
61412;DHT22;47278;49.732;7.690;2023-09-19T07:39:02;16.10;99.90
61412;DHT22;47278;49.732;7.690;2023-09-19T07:41:32;16.00;99.90
61412;DHT22;47278;49.732;7.690;2023-09-19T07:43:58;16.00;99.90
61412;DHT22;47278;49.732;7.690;2023-09-19T07:46:23;16.10;99.90
61412;DHT22;47278;49.732;7.690;2023-09-19T07:48:51;16.10;99.90
61412;DHT22;47278;49.732;7.690;2023-09-19T07:51:17;16.10;99.90
61412;DHT22;47278;49.732;7.690;2023-09-19T07:53:42;16.10;99.90
61412;DHT22;47278;49.732;7.690;2023-09-19T07:56:09;16.20;99.90
61412;DHT22;47278;49.732;7.690;2023-09-19T07:58:35;16.30;99.90
61412;DHT22;47278;49.732;7.690;2023-09-19T08:01:03;16.40;99.90
61412;DHT22;47278;49.732;7.690;2023-09-19T08:03:33;16.40;99.90
61412;DHT22;47278;49.732;7.690;2023-09-19T08:05:59;16.40;99.90
61412;DHT22;47278;49.732;7.690;2023-09-19T08:08:25;16.40;99.90
61412;DHT22;47278;49.732;7.690;2023-09-19T08:10:54;16.40;99.90
61412;DHT22;47278;49.732;7.690;2023-09-19T08:13:24;16.40;99.90
61412;DHT22;47278;49.732;7.690;2023-09-19T08:15:50;16.40;99.90
61412;DHT22;47278;49.732;7.690;2023-09-19T08:18:18;16.40;99.90
61412;DHT22;47278;49.732;7.690;2023-09-19T08:20:53;16.60;99.90
61412;DHT22;47278;49.732;7.690;2023-09-19T08:23:19;16.70;99.90
61412;DHT22;47278;49.732;7.690;2023-09-19T08:25:47;16.70;99.90
61412;DHT22;47278;49.732;7.690;2023-09-19T08:28:12;16.70;99.90
61412;DHT22;47278;49.732;7.690;2023-09-19T08:30:43;16.70;99.90
61412;DHT22;47278;49.732;7.690;2023-09-19T08:33:08;16.70;99.90
61412;DHT22;47278;49.732;7.690;2023-09-19T08:35:34;16.80;99.90
61412;DHT22;47278;49.732;7.690;2023-09-19T08:38:00;16.90;99.90
61412;DHT22;47278;49.732;7.690;2023-09-19T08:40:32;16.80;99.90
61412;DHT22;47278;49.732;7.690;2023-09-19T08:43:01;16.70;99.90
61412;DHT22;47278;49.732;7.690;2023-09-19T08:45:27;16.60;99.90
61412;DHT22;47278;49.732;7.690;2023-09-19T08:50:26;16.80;99.90
61412;DHT22;47278;49.732;7.690;2023-09-19T08:52:54;16.60;99.90
61412;DHT22;47278;49.732;7.690;2023-09-19T08:55:20;16.80;99.90
61412;DHT22;47278;49.732;7.690;2023-09-19T08:57:51;17.10;99.90
61412;DHT22;47278;49.732;7.690;2023-09-19T09:00:17;17.00;99.90
61412;DHT22;47278;49.732;7.690;2023-09-19T09:02:43;17.20;99.90
61412;DHT22;47278;49.732;7.690;2023-09-19T09:05:10;17.30;99.90
61412;DHT22;47278;49.732;7.690;2023-09-19T09:07:42;17.30;99.90
61412;DHT22;47278;49.732;7.690;2023-09-19T09:10:09;17.40;99.90
61412;DHT22;47278;49.732;7.690;2023-09-19T09:12:35;17.60;99.90
61412;DHT22;47278;49.732;7.690;2023-09-19T09:15:05;17.70;99.90
61412;DHT22;47278;49.732;7.690;2023-09-19T09:17:30;17.80;99.90
61412;DHT22;47278;49.732;7.690;2023-09-19T09:19:56;17.90;99.90
61412;DHT22;47278;49.732;7.690;2023-09-19T09:22:22;17.80;99.90
61412;DHT22;47278;49.732;7.690;2023-09-19T09:24:52;17.90;99.90
61412;DHT22;47278;49.732;7.690;2023-09-19T09:27:19;17.80;99.90
61412;DHT22;47278;49.732;7.690;2023-09-19T09:29:45;18.00;99.90
61412;DHT22;47278;49.732;7.690;2023-09-19T09:34:43;18.20;99.90
61412;DHT22;47278;49.732;7.690;2023-09-19T09:37:13;18.30;99.90
61412;DHT22;47278;49.732;7.690;2023-09-19T09:39:40;18.10;99.90
61412;DHT22;47278;49.732;7.690;2023-09-19T09:42:05;18.20;99.90
61412;DHT22;47278;49.732;7.690;2023-09-19T09:44:32;18.30;99.90
61412;DHT22;47278;49.732;7.690;2023-09-19T09:46:58;18.30;99.90
61412;DHT22;47278;49.732;7.690;2023-09-19T09:49:43;18.50;99.90
61412;DHT22;47278;49.732;7.690;2023-09-19T09:52:19;18.80;99.90
61412;DHT22;47278;49.732;7.690;2023-09-19T09:54:59;18.80;99.90
61412;DHT22;47278;49.732;7.690;2023-09-19T09:57:26;18.80;99.90
61412;DHT22;47278;49.732;7.690;2023-09-19T09:59:53;18.70;99.90
61412;DHT22;47278;49.732;7.690;2023-09-19T10:02:19;18.50;99.90
61412;DHT22;47278;49.732;7.690;2023-09-19T10:04:53;18.80;99.90
61412;DHT22;47278;49.732;7.690;2023-09-19T10:07:33;19.00;99.90
61412;DHT22;47278;49.732;7.690;2023-09-19T10:10:01;19.20;99.90
61412;DHT22;47278;49.732;7.690;2023-09-19T10:12:44;19.50;99.90
61412;DHT22;47278;49.732;7.690;2023-09-19T10:15:11;19.50;99.90
61412;DHT22;47278;49.732;7.690;2023-09-19T10:17:44;19.30;99.90
61412;DHT22;47278;49.732;7.690;2023-09-19T10:20:14;19.70;99.90
61412;DHT22;47278;49.732;7.690;2023-09-19T10:23:04;19.90;99.90
61412;DHT22;47278;49.732;7.690;2023-09-19T10:25:34;19.80;99.90
61412;DHT22;47278;49.732;7.690;2023-09-19T10:28:02;20.00;99.90
61412;DHT22;47278;49.732;7.690;2023-09-19T10:30:32;19.50;99.90
61412;DHT22;47278;49.732;7.690;2023-09-19T10:33:00;20.00;99.90
61412;DHT22;47278;49.732;7.690;2023-09-19T10:35:27;19.80;99.90
61412;DHT22;47278;49.732;7.690;2023-09-19T10:37:54;19.90;99.90
61412;DHT22;47278;49.732;7.690;2023-09-19T10:40:19;19.60;99.90
61412;DHT22;47278;49.732;7.690;2023-09-19T10:42:46;19.70;99.90
61412;DHT22;47278;49.732;7.690;2023-09-19T10:45:13;19.60;99.90
61412;DHT22;47278;49.732;7.690;2023-09-19T10:47:41;19.60;99.90
61412;DHT22;47278;49.732;7.690;2023-09-19T10:50:06;19.90;99.90
61412;DHT22;47278;49.732;7.690;2023-09-19T10:52:39;21.10;99.90
61412;DHT22;47278;49.732;7.690;2023-09-19T10:55:06;19.60;99.90
61412;DHT22;47278;49.732;7.690;2023-09-19T10:57:32;19.60;99.90
61412;DHT22;47278;49.732;7.690;2023-09-19T11:05:34;19.80;99.90
61412;DHT22;47278;49.732;7.690;2023-09-19T11:08:00;19.60;99.90
61412;DHT22;47278;49.732;7.690;2023-09-19T11:10:45;19.20;99.90
61412;DHT22;47278;49.732;7.690;2023-09-19T11:13:24;19.20;99.90
61412;DHT22;47278;49.732;7.690;2023-09-19T11:21:51;19.80;99.90
61412;DHT22;47278;49.732;7.690;2023-09-19T11:26:47;20.10;99.90
61412;DHT22;47278;49.732;7.690;2023-09-19T11:29:29;19.90;99.90
61412;DHT22;47278;49.732;7.690;2023-09-19T11:31:56;20.30;99.90
61412;DHT22;47278;49.732;7.690;2023-09-19T11:39:39;20.10;99.90
61412;DHT22;47278;49.732;7.690;2023-09-19T11:45:06;20.00;99.90
61412;DHT22;47278;49.732;7.690;2023-09-19T11:47:32;20.30;99.90
61412;DHT22;47278;49.732;7.690;2023-09-19T11:50:01;20.80;99.90
61412;DHT22;47278;49.732;7.690;2023-09-19T11:52:27;21.10;99.90
61412;DHT22;47278;49.732;7.690;2023-09-19T11:54:57;21.20;99.90
61412;DHT22;47278;49.732;7.690;2023-09-19T11:57:25;21.10;99.90
61412;DHT22;47278;49.732;7.690;2023-09-19T11:59:51;21.20;99.90
61412;DHT22;47278;49.732;7.690;2023-09-19T12:02:31;21.30;99.90
61412;DHT22;47278;49.732;7.690;2023-09-19T12:05:00;21.10;99.90
61412;DHT22;47278;49.732;7.690;2023-09-19T12:07:25;21.70;99.90
61412;DHT22;47278;49.732;7.690;2023-09-19T12:10:04;21.30;99.90
61412;DHT22;47278;49.732;7.690;2023-09-19T12:12:30;22.10;99.90
61412;DHT22;47278;49.732;7.690;2023-09-19T12:14:58;22.30;99.90
61412;DHT22;47278;49.732;7.690;2023-09-19T12:17:35;22.10;99.90
61412;DHT22;47278;49.732;7.690;2023-09-19T12:20:01;21.60;99.90
61412;DHT22;47278;49.732;7.690;2023-09-19T12:25:07;21.60;99.90
61412;DHT22;47278;49.732;7.690;2023-09-19T12:27:49;21.20;99.90
61412;DHT22;47278;49.732;7.690;2023-09-19T12:30:18;21.70;99.90
61412;DHT22;47278;49.732;7.690;2023-09-19T12:32:46;21.60;99.90
61412;DHT22;47278;49.732;7.690;2023-09-19T12:35:27;21.40;99.90
61412;DHT22;47278;49.732;7.690;2023-09-19T12:37:54;21.20;99.90
61412;DHT22;47278;49.732;7.690;2023-09-19T12:40:21;21.20;99.90
61412;DHT22;47278;49.732;7.690;2023-09-19T12:42:53;20.80;99.90
61412;DHT22;47278;49.732;7.690;2023-09-19T12:45:20;20.90;99.90
61412;DHT22;47278;49.732;7.690;2023-09-19T12:50:31;21.70;99.90
61412;DHT22;47278;49.732;7.690;2023-09-19T12:52:58;21.50;99.90
61412;DHT22;47278;49.732;7.690;2023-09-19T12:55:28;21.30;99.90
61412;DHT22;47278;49.732;7.690;2023-09-19T12:57:58;21.50;99.90
61412;DHT22;47278;49.732;7.690;2023-09-19T13:00:33;21.30;99.90
61412;DHT22;47278;49.732;7.690;2023-09-19T13:03:12;21.20;99.90
61412;DHT22;47278;49.732;7.690;2023-09-19T13:05:57;21.30;99.90
61412;DHT22;47278;49.732;7.690;2023-09-19T13:08:25;21.20;99.90
61412;DHT22;47278;49.732;7.690;2023-09-19T13:11:01;21.50;99.90
61412;DHT22;47278;49.732;7.690;2023-09-19T13:13:27;21.50;99.90
61412;DHT22;47278;49.732;7.690;2023-09-19T13:15:54;21.50;99.90
61412;DHT22;47278;49.732;7.690;2023-09-19T13:18:22;21.60;99.90
61412;DHT22;47278;49.732;7.690;2023-09-19T13:23:38;21.90;99.90
61412;DHT22;47278;49.732;7.690;2023-09-19T13:26:03;21.80;99.90
61412;DHT22;47278;49.732;7.690;2023-09-19T13:28:33;21.60;99.90
61412;DHT22;47278;49.732;7.690;2023-09-19T13:30:58;21.50;99.90
61412;DHT22;47278;49.732;7.690;2023-09-19T13:33:24;21.40;99.90
61412;DHT22;47278;49.732;7.690;2023-09-19T13:35:51;21.50;99.90
61412;DHT22;47278;49.732;7.690;2023-09-19T13:38:18;21.60;99.90
61412;DHT22;47278;49.732;7.690;2023-09-19T13:40:47;21.90;99.90
61412;DHT22;47278;49.732;7.690;2023-09-19T13:43:13;21.80;99.90
61412;DHT22;47278;49.732;7.690;2023-09-19T13:45:38;21.40;99.90
61412;DHT22;47278;49.732;7.690;2023-09-19T13:48:07;21.30;99.90
61412;DHT22;47278;49.732;7.690;2023-09-19T13:50:34;21.40;99.90
61412;DHT22;47278;49.732;7.690;2023-09-19T13:52:59;21.40;99.90
61412;DHT22;47278;49.732;7.690;2023-09-19T13:55:25;21.80;99.90
61412;DHT22;47278;49.732;7.690;2023-09-19T13:57:51;21.40;99.90
61412;DHT22;47278;49.732;7.690;2023-09-19T14:00:20;21.50;99.90
61412;DHT22;47278;49.732;7.690;2023-09-19T14:02:45;21.60;99.90
61412;DHT22;47278;49.732;7.690;2023-09-19T14:05:11;22.00;99.90
61412;DHT22;47278;49.732;7.690;2023-09-19T14:07:43;22.50;99.90
61412;DHT22;47278;49.732;7.690;2023-09-19T14:10:09;21.90;99.90
61412;DHT22;47278;49.732;7.690;2023-09-19T14:12:36;22.20;99.90
61412;DHT22;47278;49.732;7.690;2023-09-19T14:15:02;22.10;99.90
61412;DHT22;47278;49.732;7.690;2023-09-19T14:17:31;22.30;99.90
61412;DHT22;47278;49.732;7.690;2023-09-19T14:19:57;22.50;99.90
61412;DHT22;47278;49.732;7.690;2023-09-19T14:22:22;22.50;99.90
61412;DHT22;47278;49.732;7.690;2023-09-19T14:24:48;22.90;99.90
61412;DHT22;47278;49.732;7.690;2023-09-19T14:27:13;22.90;99.90
61412;DHT22;47278;49.732;7.690;2023-09-19T14:29:39;22.90;99.90
61412;DHT22;47278;49.732;7.690;2023-09-19T14:32:04;23.20;99.90
61412;DHT22;47278;49.732;7.690;2023-09-19T14:34:30;22.10;99.90
61412;DHT22;47278;49.732;7.690;2023-09-19T14:36:56;22.50;99.90
61412;DHT22;47278;49.732;7.690;2023-09-19T14:39:22;22.50;99.90
61412;DHT22;47278;49.732;7.690;2023-09-19T14:41:48;23.60;99.90
61412;DHT22;47278;49.732;7.690;2023-09-19T14:44:14;24.90;99.90
61412;DHT22;47278;49.732;7.690;2023-09-19T14:46:41;25.10;99.90
61412;DHT22;47278;49.732;7.690;2023-09-19T14:49:08;25.20;99.90
61412;DHT22;47278;49.732;7.690;2023-09-19T14:51:35;26.80;99.90
61412;DHT22;47278;49.732;7.690;2023-09-19T14:54:01;27.10;99.90
61412;DHT22;47278;49.732;7.690;2023-09-19T14:56:27;26.20;99.90
61412;DHT22;47278;49.732;7.690;2023-09-19T14:58:55;25.40;99.90
61412;DHT22;47278;49.732;7.690;2023-09-19T15:01:20;25.50;99.90
61412;DHT22;47278;49.732;7.690;2023-09-19T15:03:47;26.40;99.90
61412;DHT22;47278;49.732;7.690;2023-09-19T15:06:15;25.70;99.90
61412;DHT22;47278;49.732;7.690;2023-09-19T15:08:43;24.50;99.90
61412;DHT22;47278;49.732;7.690;2023-09-19T15:11:16;22.70;99.90
61412;DHT22;47278;49.732;7.690;2023-09-19T15:13:42;21.90;99.90
61412;DHT22;47278;49.732;7.690;2023-09-19T15:16:08;25.10;99.90
61412;DHT22;47278;49.732;7.690;2023-09-19T15:18:35;25.60;99.90
61412;DHT22;47278;49.732;7.690;2023-09-19T15:21:03;26.80;99.90
61412;DHT22;47278;49.732;7.690;2023-09-19T15:23:32;27.50;99.90
61412;DHT22;47278;49.732;7.690;2023-09-19T15:26:00;24.60;99.90
61412;DHT22;47278;49.732;7.690;2023-09-19T15:28:26;24.20;99.90
61412;DHT22;47278;49.732;7.690;2023-09-19T15:31:11;22.20;99.90
61412;DHT22;47278;49.732;7.690;2023-09-19T15:33:37;22.20;99.90
61412;DHT22;47278;49.732;7.690;2023-09-19T15:36:04;22.50;99.90
61412;DHT22;47278;49.732;7.690;2023-09-19T15:38:30;22.00;99.90
61412;DHT22;47278;49.732;7.690;2023-09-19T15:40:57;21.60;99.90
61412;DHT22;47278;49.732;7.690;2023-09-19T15:43:23;22.20;99.90
61412;DHT22;47278;49.732;7.690;2023-09-19T15:45:49;24.70;99.90
61412;DHT22;47278;49.732;7.690;2023-09-19T15:48:14;23.50;99.90
61412;DHT22;47278;49.732;7.690;2023-09-19T15:50:40;23.10;99.90
61412;DHT22;47278;49.732;7.690;2023-09-19T15:53:07;23.50;99.90
61412;DHT22;47278;49.732;7.690;2023-09-19T15:55:40;22.40;99.90
61412;DHT22;47278;49.732;7.690;2023-09-19T15:58:06;23.20;99.90
61412;DHT22;47278;49.732;7.690;2023-09-19T16:00:32;22.20;99.90
61412;DHT22;47278;49.732;7.690;2023-09-19T16:02:59;21.60;99.90
61412;DHT22;47278;49.732;7.690;2023-09-19T16:05:27;21.20;99.90
61412;DHT22;47278;49.732;7.690;2023-09-19T16:07:53;21.40;99.90
61412;DHT22;47278;49.732;7.690;2023-09-19T16:10:18;21.80;99.90
61412;DHT22;47278;49.732;7.690;2023-09-19T16:12:44;22.20;99.90
61412;DHT22;47278;49.732;7.690;2023-09-19T16:15:10;21.60;99.90
61412;DHT22;47278;49.732;7.690;2023-09-19T16:17:39;21.70;99.90
61412;DHT22;47278;49.732;7.690;2023-09-19T16:20:05;21.40;99.90
61412;DHT22;47278;49.732;7.690;2023-09-19T16:22:37;21.00;99.90
61412;DHT22;47278;49.732;7.690;2023-09-19T16:25:02;21.00;99.90
61412;DHT22;47278;49.732;7.690;2023-09-19T16:27:28;21.40;99.90
61412;DHT22;47278;49.732;7.690;2023-09-19T16:29:53;22.60;99.90